Terminal Aerodrome Forecast
Issued by NWS

Home | Current Version | Previous Version | Graphics & Text | Print | Product List | Glossary On
Versions: 1 2 3 4 5 6 7 8 9 10 11 12
920
FTUS43 KICT 112258 AAB
TAFCNU
TAF AMD
KCNU 112258Z 1123/1218 VRB05KT P6SM SCT250
     FM120900 24006KT P6SM SCT250
     FM121100 30008KT P6SM SCT250
     FM121500 35015G21KT P6SM SCT120=

USA.gov is the U.S. government's official web portal to all federal, state and local government web resources and services.